Aérodrome :
LOGIN :

S'inscrire | Disclaimer

   EN    FR    IT 

 










Légende :    VFR   VFR Marginal   IFR   IFR Intensif   IFR Très Intensif
Visi : 
Plafond : 
>= 8 km
>= 3000ft
5 à 8 km
1000 à 3000 ft
1500m à 5 km
500 à 1000 ft
800 à 1500m
200 à 500 ft
< 800m
< 200 ft
Symboles :   Orages  Brouillard  Fortes neiges  Fortes précipitations  Vent > 20 kt
SIGMETs :   Divers  Orages  Givrage  Turbulence  Onde Orograph.  Cendres Volcan.






- Altitude de l'aérodrome : -13 ft
- Code IATA : LEY


EHLE - Lelystad

DERNIER METAR :
  • 271125Z AUTO 06006KT 9999 OVC007 07/06 Q1020 BECMG 4000 BR

METARs EXPIRÉS :
  • 271055Z AUTO 05006KT 9999 BKN008 OVC009 07/06 Q1020 BECMG 4000 BR
  • 271025Z AUTO 04006KT 9999 OVC013 07/06 Q1020 BECMG 4000 BR BKN006
  • 270955Z AUTO 04006KT 9999 OVC015 07/06 Q1020 BECMG 4000 BR BKN006
  • 270925Z AUTO 05004KT 9999 FEW008 OVC013 06/06 Q1020 BECMG 4000 BR BKN006
  • 270855Z AUTO 04005KT 9999 FEW007 OVC019 06/06 Q1020 BECMG 4000 BR BKN006

TAF TAF EHLE
Valide du 27 à 06h jusqu'au 28 à 12h UTC


270517Z 2706/2812 07005KT 9999 BKN030
PROB30
TEMPO 2706/2708 0500 BCFG
BECMG 2707/2710 4000 BR BKN006
PROB30
TEMPO 2709/2713 2500 -DZ BKN003
BECMG 2716/2719 8000 NSW SCT040
BECMG 2721/2724 4000 MIFG BR
PROB40 2722/2810 0600 FG BKN002
BECMG 2809/2812 8000 NSW



MET'MAP, la Météo Aéronautique d'un coup d'oeil ! - Copyright ORBIFLY Décembre 2007 - Disclaimer

ORBIFLY MET'MAP TEAM :

Programmation & Développement : Alexandra Zaïnal
Sur une idée originale de : Baudouin d'Aumeries
Assistance à la programmation : Marc-Olivier Méhu
Soutien technique & logistique : Manuel Goepfert

Contact : metmap@orbifly.com




SOURCES & CREDITS :

   NOAA